createdAt,value
2018-12-07T00:00:40.979Z,6.53
2018-12-07T00:03:10.158Z,6.97
2018-12-07T00:05:39.323Z,6.37
2018-12-07T00:08:08.511Z,5.97
2018-12-07T00:10:37.669Z,6.78
2018-12-07T00:13:06.883Z,6.75
2018-12-07T00:15:36.167Z,6.37
2018-12-07T00:18:05.422Z,5.90
2018-12-07T00:20:35.027Z,6.55
2018-12-07T00:23:04.246Z,6.00
2018-12-07T00:25:33.439Z,5.62
2018-12-07T00:28:02.624Z,5.78
2018-12-07T00:30:31.792Z,5.65
2018-12-07T00:33:00.983Z,5.62
2018-12-07T00:35:30.241Z,4.33
2018-12-07T00:37:59.422Z,5.00
2018-12-07T00:40:28.583Z,5.42
2018-12-07T00:42:57.837Z,4.58
2018-12-07T00:45:27.030Z,4.42
2018-12-07T00:47:56.237Z,3.95
2018-12-07T00:50:25.407Z,4.15
2018-12-07T00:52:54.619Z,3.77
2018-12-07T00:55:41.119Z,3.62
2018-12-07T00:58:10.304Z,3.52
2018-12-07T01:00:39.467Z,3.50
2018-12-07T01:03:08.667Z,3.70
2018-12-07T01:05:37.955Z,3.20
2018-12-07T01:08:07.166Z,3.95
2018-12-07T01:10:36.348Z,3.22
2018-12-07T01:13:05.766Z,3.12
2018-12-07T01:15:35.131Z,3.47
2018-12-07T01:18:04.427Z,3.58
2018-12-07T01:20:33.692Z,3.15
2018-12-07T01:23:02.890Z,3.22
2018-12-07T01:25:32.053Z,3.42
2018-12-07T01:28:01.310Z,2.80
2018-12-07T01:30:30.490Z,2.75
2018-12-07T01:32:59.773Z,2.67
2018-12-07T01:35:28.955Z,2.70
2018-12-07T01:37:58.314Z,2.92
2018-12-07T01:40:27.571Z,2.60
2018-12-07T01:42:56.791Z,2.70
2018-12-07T01:45:26.002Z,2.70
2018-12-07T01:47:55.224Z,2.08
2018-12-07T01:50:24.394Z,2.55
2018-12-07T01:52:53.695Z,2.10
2018-12-07T01:55:22.863Z,2.15
2018-12-07T01:57:52.047Z,2.10
2018-12-07T02:00:21.473Z,2.00
2018-12-07T02:02:53.712Z,1.75
2018-12-07T02:05:22.874Z,1.72
2018-12-07T02:07:52.146Z,2.10
2018-12-07T02:10:21.298Z,1.90
2018-12-07T02:12:50.471Z,1.72
2018-12-07T02:15:19.814Z,1.67
2018-12-07T02:17:48.999Z,1.60
2018-12-07T02:20:18.222Z,1.70
2018-12-07T02:22:47.406Z,1.70
2018-12-07T02:25:16.744Z,1.40
2018-12-07T02:27:51.223Z,2.75
2018-12-07T02:30:21.017Z,1.40
2018-12-07T02:32:50.252Z,1.30
2018-12-07T02:35:19.413Z,1.22
2018-12-07T02:37:48.595Z,1.30
2018-12-07T02:40:17.847Z,1.37
2018-12-07T02:42:47.119Z,0.93
2018-12-07T02:45:16.287Z,1.20
2018-12-07T02:47:45.473Z,1.32
2018-12-07T02:50:14.640Z,1.10
2018-12-07T02:52:43.875Z,1.00
2018-12-07T02:55:13.232Z,0.98
2018-12-07T02:57:42.423Z,1.10
2018-12-07T03:00:11.784Z,0.80
2018-12-07T03:02:40.965Z,0.70
2018-12-07T03:05:10.230Z,0.80
2018-12-07T03:07:39.526Z,1.30
2018-12-07T03:10:08.979Z,0.80
2018-12-07T03:12:38.163Z,1.47
2018-12-07T03:15:07.615Z,0.62
2018-12-07T03:17:36.900Z,0.85
2018-12-07T03:20:06.659Z,0.42
2018-12-07T03:22:36.242Z,0.80
2018-12-07T03:25:06.183Z,0.62
2018-12-07T03:27:35.451Z,0.80
2018-12-07T03:30:05.840Z,0.60
2018-12-07T03:32:35.000Z,0.65
2018-12-07T03:35:05.150Z,0.70
2018-12-07T03:37:34.315Z,0.90
2018-12-07T03:40:03.751Z,1.20
2018-12-07T03:42:32.916Z,0.82
2018-12-07T03:45:02.102Z,0.90
2018-12-07T03:47:31.279Z,1.80
2018-12-07T03:50:06.814Z,1.15
2018-12-07T03:52:35.986Z,1.72
2018-12-07T03:55:08.747Z,1.40
2018-12-07T03:57:37.906Z,1.40
2018-12-07T04:00:07.704Z,1.98
2018-12-07T04:02:36.868Z,1.65
2018-12-07T04:05:06.512Z,1.40
2018-12-07T04:07:35.720Z,1.80
2018-12-07T04:10:05.399Z,1.42
2018-12-07T04:12:34.574Z,1.98
2018-12-07T04:15:04.003Z,2.85
2018-12-07T04:17:33.176Z,1.47
2018-12-07T04:20:02.384Z,1.22
2018-12-07T04:22:31.583Z,1.17
2018-12-07T04:25:00.807Z,1.30
2018-12-07T04:27:30.365Z,1.30
2018-12-07T04:30:38.563Z,1.80
2018-12-07T04:33:07.725Z,1.27
2018-12-07T04:35:36.924Z,0.90
2018-12-07T04:38:06.248Z,0.95
2018-12-07T04:40:35.435Z,1.02
2018-12-07T04:43:04.723Z,0.93
2018-12-07T04:45:34.012Z,1.30
2018-12-07T04:48:03.224Z,1.42
2018-12-07T04:50:33.496Z,0.80
2018-12-07T04:53:02.770Z,0.80
2018-12-07T04:55:32.056Z,1.17
2018-12-07T04:58:01.328Z,1.07
2018-12-07T05:00:30.554Z,1.20
2018-12-07T05:02:59.739Z,0.85
2018-12-07T05:05:29.160Z,1.10
2018-12-07T05:07:59.043Z,0.90
2018-12-07T05:10:28.282Z,1.40
2018-12-07T05:12:57.451Z,1.20
2018-12-07T05:15:26.749Z,1.30
2018-12-07T05:17:55.916Z,1.20
2018-12-07T05:20:25.103Z,1.62
2018-12-07T05:22:54.331Z,1.30
2018-12-07T05:25:23.513Z,2.17
2018-12-07T05:27:52.735Z,1.27
2018-12-07T05:30:22.123Z,1.40
2018-12-07T05:32:51.291Z,1.32
2018-12-07T05:35:20.487Z,1.90
2018-12-07T05:37:49.662Z,1.42
2018-12-07T05:40:18.848Z,2.10
2018-12-07T05:42:48.044Z,2.30
2018-12-07T05:45:17.247Z,1.92
2018-12-07T05:47:46.411Z,3.10
2018-12-07T05:50:15.595Z,1.30
2018-12-07T05:52:44.811Z,1.30
2018-12-07T05:55:14.078Z,1.20
2018-12-07T05:57:43.419Z,1.10
2018-12-07T06:00:12.980Z,1.10
2018-12-07T06:02:42.163Z,0.80
2018-12-07T06:05:11.360Z,1.98
2018-12-07T06:07:40.554Z,1.02
2018-12-07T06:10:10.051Z,1.37
2018-12-07T06:12:39.215Z,0.55
2018-12-07T06:15:08.588Z,0.90
2018-12-07T06:17:40.611Z,0.98
2018-12-07T06:20:09.823Z,1.10
2018-12-07T06:22:39.125Z,1.00
2018-12-07T06:25:08.311Z,1.20
2018-12-07T06:27:37.483Z,1.10
2018-12-07T06:30:07.187Z,1.30
2018-12-07T06:32:36.520Z,1.37
2018-12-07T06:35:06.229Z,1.40
2018-12-07T06:37:35.387Z,1.25
2018-12-07T06:40:04.927Z,1.30
2018-12-07T06:42:34.087Z,1.30
2018-12-07T06:45:03.556Z,1.40
2018-12-07T06:47:32.816Z,1.42
2018-12-07T06:50:02.003Z,2.17
2018-12-07T06:52:31.402Z,2.25
2018-12-07T06:55:00.607Z,1.40
2018-12-07T06:57:29.819Z,1.98
2018-12-07T06:59:59.150Z,2.15
2018-12-07T07:02:28.395Z,1.17
2018-12-07T07:04:57.579Z,1.37
2018-12-07T07:07:26.784Z,1.35
2018-12-07T07:09:55.974Z,1.20
2018-12-07T07:12:25.187Z,3.55
2018-12-07T07:14:54.384Z,1.42
2018-12-07T07:17:23.569Z,1.40
2018-12-07T07:19:52.837Z,1.47
2018-12-07T07:22:22.191Z,2.17
2018-12-07T07:24:51.391Z,2.37
2018-12-07T07:27:20.569Z,1.25
2018-12-07T07:29:50.139Z,1.17
2018-12-07T07:32:19.407Z,1.30
2018-12-07T07:34:48.605Z,1.05
2018-12-07T07:37:17.859Z,1.30
2018-12-07T07:39:47.058Z,1.00
2018-12-07T07:42:16.487Z,1.45
2018-12-07T07:44:45.695Z,1.02
2018-12-07T07:47:15.051Z,1.40
2018-12-07T07:49:44.347Z,1.72
2018-12-07T07:52:13.643Z,3.15
2018-12-07T07:54:42.836Z,6.97
2018-12-07T07:57:12.070Z,5.42
2018-12-07T07:59:41.286Z,3.10
2018-12-07T08:02:10.646Z,6.45
2018-12-07T08:04:39.995Z,2.15
2018-12-07T08:07:09.318Z,2.20
2018-12-07T08:09:38.625Z,2.25
2018-12-07T08:12:08.027Z,5.30
2018-12-07T08:14:37.291Z,5.70
2018-12-07T08:17:06.531Z,5.33
2018-12-07T08:19:35.794Z,5.58
2018-12-07T08:22:05.224Z,4.45
2018-12-07T08:24:34.590Z,1.47
2018-12-07T08:27:03.937Z,1.57
2018-12-07T08:29:35.145Z,1.72
2018-12-07T08:32:04.379Z,1.70
2018-12-07T08:34:33.628Z,2.52
2018-12-07T08:37:02.967Z,1.95
2018-12-07T08:39:32.254Z,3.33
2018-12-07T08:42:06.731Z,1.50
2018-12-07T08:44:32.691Z,1.37
2018-12-07T08:47:02.040Z,1.20
2018-12-07T08:49:36.695Z,0.65
2018-12-07T08:52:05.940Z,0.85
2018-12-07T08:54:35.115Z,1.15
2018-12-07T08:57:04.639Z,1.27
2018-12-07T08:59:34.023Z,0.72
2018-12-07T09:02:03.443Z,1.30
2018-12-07T09:04:32.722Z,1.67
2018-12-07T09:07:02.028Z,0.88
2018-12-07T09:09:31.311Z,0.88
2018-12-07T09:12:00.728Z,0.72
2018-12-07T09:14:29.920Z,0.70
2018-12-07T09:16:59.149Z,1.00
2018-12-07T09:19:28.516Z,2.40
2018-12-07T09:21:57.827Z,0.65
2018-12-07T09:24:27.097Z,0.60
2018-12-07T09:26:56.406Z,0.75
2018-12-07T09:29:26.433Z,1.20
2018-12-07T09:31:55.767Z,1.35
2018-12-07T09:34:25.016Z,1.67
2018-12-07T09:36:54.235Z,0.78
2018-12-07T09:39:23.617Z,0.98
2018-12-07T09:41:52.938Z,0.80
2018-12-07T09:44:22.218Z,1.35
2018-12-07T09:46:51.443Z,0.70
2018-12-07T09:49:20.660Z,1.20
2018-12-07T09:51:49.947Z,1.32
2018-12-07T09:54:19.215Z,0.60
2018-12-07T09:56:48.470Z,0.80
2018-12-07T09:59:17.931Z,2.22
2018-12-07T10:01:47.158Z,1.30
2018-12-07T10:04:16.469Z,2.08
2018-12-07T10:06:45.828Z,1.07
2018-12-07T10:09:15.103Z,1.62
2018-12-07T10:11:44.434Z,1.12
2018-12-07T10:14:13.610Z,1.98
2018-12-07T10:16:42.832Z,0.80
2018-12-07T10:19:12.131Z,1.37
2018-12-07T10:21:41.358Z,1.52
2018-12-07T10:24:10.739Z,1.80
2018-12-07T10:26:40.030Z,2.02
2018-12-07T10:29:09.314Z,1.95
2018-12-07T10:31:38.563Z,1.40
2018-12-07T10:34:07.919Z,1.20
2018-12-07T10:36:37.132Z,1.00
2018-12-07T10:39:07.772Z,1.17
2018-12-07T10:41:37.058Z,1.02
2018-12-07T10:44:06.349Z,0.85
2018-12-07T10:46:35.560Z,1.65
2018-12-07T10:49:05.150Z,1.00
2018-12-07T10:51:34.369Z,1.40
2018-12-07T10:54:03.688Z,1.75
2018-12-07T10:56:32.963Z,1.20
2018-12-07T10:59:02.263Z,1.55
2018-12-07T11:01:36.821Z,1.40
2018-12-07T11:04:11.370Z,1.20
2018-12-07T11:06:45.912Z,1.27
2018-12-07T11:09:29.058Z,1.47
2018-12-07T11:12:03.780Z,1.20
2018-12-07T11:14:38.243Z,1.25
2018-12-07T11:17:12.794Z,1.20
2018-12-07T11:19:47.410Z,1.67
2018-12-07T11:22:22.063Z,2.45
2018-12-07T11:24:56.661Z,1.57
2018-12-07T11:27:31.404Z,1.92
2018-12-07T11:30:06.770Z,1.30
2018-12-07T11:32:41.515Z,1.67
2018-12-07T11:35:14.755Z,1.60
2018-12-07T11:37:43.989Z,1.80
2018-12-07T11:40:13.438Z,2.15
2018-12-07T11:42:42.759Z,0.95
2018-12-07T11:45:12.710Z,1.20
2018-12-07T11:47:42.396Z,1.15
2018-12-07T11:50:11.802Z,1.77
2018-12-07T11:52:41.033Z,2.25
2018-12-07T11:55:10.414Z,1.47
2018-12-07T11:57:39.658Z,1.30
2018-12-07T12:00:09.805Z,1.07
2018-12-07T12:02:39.060Z,1.37
2018-12-07T12:05:08.388Z,0.78
2018-12-07T12:07:37.666Z,1.07
2018-12-07T12:10:07.453Z,1.70
2018-12-07T12:12:36.744Z,0.50
2018-12-07T12:15:07.818Z,1.10
2018-12-07T12:17:37.080Z,1.20
2018-12-07T12:20:08.050Z,0.75
2018-12-07T12:22:37.301Z,0.60
2018-12-07T12:25:07.336Z,1.25
2018-12-07T12:27:36.574Z,1.00
2018-12-07T12:30:07.387Z,0.80
2018-12-07T12:32:36.724Z,1.98
2018-12-07T12:35:06.552Z,0.70
2018-12-07T12:37:35.992Z,1.47
2018-12-07T12:40:05.808Z,3.22
2018-12-07T12:42:35.108Z,1.77
2018-12-07T12:45:05.341Z,1.62
2018-12-07T12:47:34.622Z,1.87
2018-12-07T12:50:06.706Z,1.00
2018-12-07T12:52:35.979Z,2.37
2018-12-07T12:55:05.317Z,1.30
2018-12-07T12:57:35.392Z,1.72
2018-12-07T13:00:05.610Z,0.85
2018-12-07T13:02:34.892Z,1.90
2018-12-07T13:05:04.619Z,1.05
2018-12-07T13:07:33.860Z,0.90
2018-12-07T13:10:03.122Z,1.02
2018-12-07T13:12:32.422Z,0.62
2018-12-07T13:15:01.723Z,1.47
2018-12-07T13:17:31.095Z,1.17
2018-12-07T13:20:00.984Z,1.15
2018-12-07T13:22:30.291Z,1.25
2018-12-07T13:24:59.513Z,1.10
2018-12-07T13:27:28.838Z,1.95
2018-12-07T13:29:58.125Z,1.02
2018-12-07T13:32:27.407Z,0.50
2018-12-07T13:34:56.786Z,0.70
2018-12-07T13:37:26.899Z,0.60
2018-12-07T13:39:56.413Z,1.65
2018-12-07T13:42:25.792Z,1.30
2018-12-07T13:44:55.854Z,0.80
2018-12-07T13:47:25.317Z,0.80
2018-12-07T13:49:58.804Z,2.20
2018-12-07T13:52:28.064Z,3.12
2018-12-07T13:54:57.619Z,1.20
2018-12-07T13:57:26.997Z,1.07
2018-12-07T13:59:56.467Z,1.10
2018-12-07T14:02:25.956Z,0.88
2018-12-07T14:04:55.911Z,0.82
2018-12-07T14:07:25.317Z,1.72
2018-12-07T14:09:54.818Z,1.37
2018-12-07T14:12:24.422Z,3.25
2018-12-07T14:14:54.014Z,0.80
2018-12-07T14:17:23.513Z,2.58
2018-12-07T14:19:53.146Z,0.80
2018-12-07T14:22:22.537Z,1.45
2018-12-07T14:24:51.927Z,1.20
2018-12-07T14:27:21.306Z,1.75
2018-12-07T14:29:50.836Z,1.02
2018-12-07T14:32:20.364Z,0.75
2018-12-07T14:34:49.766Z,0.60
2018-12-07T14:37:19.327Z,0.80
2018-12-07T14:39:48.572Z,0.60
2018-12-07T14:42:17.928Z,1.35
2018-12-07T14:44:47.400Z,0.60
2018-12-07T14:47:16.897Z,1.55
2018-12-07T14:49:46.370Z,1.12
2018-12-07T14:52:15.887Z,0.80
2018-12-07T14:54:45.249Z,1.42
2018-12-07T14:57:14.813Z,1.15
2018-12-07T14:59:44.303Z,0.90
2018-12-07T15:02:13.686Z,0.93
2018-12-07T15:04:43.112Z,0.82
2018-12-07T15:07:12.801Z,1.00
2018-12-07T15:09:42.441Z,0.70
2018-12-07T15:12:11.978Z,1.07
2018-12-07T15:14:41.332Z,1.15
2018-12-07T15:17:10.676Z,0.70
2018-12-07T15:19:40.559Z,1.15
2018-12-07T15:22:10.235Z,1.27
2018-12-07T15:24:39.876Z,1.10
2018-12-07T15:27:09.376Z,2.35
2018-12-07T15:29:38.908Z,2.45
2018-12-07T15:32:08.335Z,1.40
2018-12-07T15:34:37.546Z,1.47
2018-12-07T15:37:06.931Z,1.52
2018-12-07T15:39:36.349Z,1.40
2018-12-07T15:42:06.037Z,1.40
2018-12-07T15:44:35.485Z,0.72
2018-12-07T15:47:05.026Z,1.57
2018-12-07T15:49:34.460Z,0.85
2018-12-07T15:52:03.957Z,1.92
2018-12-07T15:54:33.525Z,1.60
2018-12-07T15:57:03.075Z,1.25
2018-12-07T15:59:34.677Z,1.42
2018-12-07T16:02:04.104Z,1.02
2018-12-07T16:04:33.736Z,1.05
2018-12-07T16:07:03.313Z,0.95
2018-12-07T16:09:32.830Z,0.85
2018-12-07T16:12:02.357Z,1.00
2018-12-07T16:14:31.843Z,1.30
2018-12-07T16:17:01.178Z,0.82
2018-12-07T16:19:30.742Z,1.32
2018-12-07T16:22:00.918Z,1.10
2018-12-07T16:24:30.619Z,1.20
2018-12-07T16:27:00.050Z,2.85
2018-12-07T16:29:29.661Z,5.03
2018-12-07T16:31:59.132Z,2.33
2018-12-07T16:34:28.350Z,1.72
2018-12-07T16:36:57.944Z,1.22
2018-12-07T16:39:27.318Z,1.30
2018-12-07T16:41:56.676Z,2.15
2018-12-07T16:44:26.165Z,1.62
2018-12-07T16:46:55.416Z,2.00
2018-12-07T16:49:24.876Z,2.08
2018-12-07T16:51:54.307Z,1.47
2018-12-07T16:54:23.899Z,1.27
2018-12-07T16:56:54.257Z,2.02
2018-12-07T16:59:23.727Z,1.70
2018-12-07T17:01:53.522Z,1.67
2018-12-07T17:04:22.855Z,1.30
2018-12-07T17:06:52.019Z,1.70
2018-12-07T17:09:21.390Z,0.82
2018-12-07T17:11:50.730Z,1.80
2018-12-07T17:14:20.116Z,1.07
2018-12-07T17:16:49.661Z,0.80
2018-12-07T17:19:18.947Z,0.88
2018-12-07T17:21:48.160Z,2.02
2018-12-07T17:24:17.622Z,1.67
2018-12-07T17:26:47.015Z,1.12
2018-12-07T17:29:16.256Z,1.50
2018-12-07T17:31:45.593Z,1.87
2018-12-07T17:34:14.990Z,1.17
2018-12-07T17:36:44.658Z,1.05
2018-12-07T17:39:14.020Z,0.65
2018-12-07T17:41:43.960Z,0.47
2018-12-07T17:44:13.375Z,0.57
2018-12-07T17:46:43.116Z,1.62
2018-12-07T17:49:13.486Z,1.35
2018-12-07T17:51:43.230Z,1.25
2018-12-07T17:54:12.622Z,1.00
2018-12-07T17:56:42.027Z,1.20
2018-12-07T17:59:11.707Z,1.15
2018-12-07T18:01:41.196Z,0.85
2018-12-07T18:04:10.549Z,0.70
2018-12-07T18:06:39.928Z,0.85
2018-12-07T18:09:10.303Z,1.70
2018-12-07T18:11:39.550Z,1.75
2018-12-07T18:14:09.743Z,0.57
2018-12-07T18:16:39.304Z,0.75
2018-12-07T18:19:08.890Z,0.90
2018-12-07T18:21:38.233Z,0.62
2018-12-07T18:24:07.503Z,2.17
2018-12-07T18:26:37.029Z,0.82
2018-12-07T18:29:06.649Z,3.00
2018-12-07T18:31:36.189Z,2.75
2018-12-07T18:34:06.100Z,1.05
2018-12-07T18:36:36.629Z,1.35
2018-12-07T18:39:08.572Z,2.40
2018-12-07T18:41:37.867Z,1.57
2018-12-07T18:44:07.205Z,0.80
2018-12-07T18:46:36.772Z,1.05
2018-12-07T18:49:06.105Z,1.40
2018-12-07T18:51:36.587Z,1.85
2018-12-07T18:54:06.564Z,1.12
2018-12-07T18:56:35.866Z,1.15
2018-12-07T18:59:05.195Z,0.95
2018-12-07T19:01:34.699Z,1.22
2018-12-07T19:04:04.169Z,1.20
2018-12-07T19:06:33.563Z,1.52
2018-12-07T19:09:04.224Z,1.07
2018-12-07T19:11:33.636Z,0.90
2018-12-07T19:14:04.270Z,0.78
2018-12-07T19:16:33.715Z,1.35
2018-12-07T19:19:02.952Z,0.80
2018-12-07T19:21:32.139Z,1.10
2018-12-07T19:24:02.187Z,2.33
2018-12-07T19:26:31.592Z,0.98
2018-12-07T19:29:00.995Z,0.80
2018-12-07T19:31:30.539Z,1.45
2018-12-07T19:33:59.875Z,1.77
2018-12-07T19:36:29.732Z,2.17
2018-12-07T19:38:59.164Z,1.62
2018-12-07T19:41:28.407Z,2.20
2018-12-07T19:43:57.595Z,0.80
2018-12-07T19:46:26.909Z,1.10
2018-12-07T19:48:56.492Z,2.35
2018-12-07T19:51:25.812Z,1.22
2018-12-07T19:53:55.330Z,1.07
2018-12-07T19:56:24.857Z,2.05
2018-12-07T19:58:54.315Z,1.40
2018-12-07T20:01:24.254Z,2.30
2018-12-07T20:03:54.098Z,1.87
2018-12-07T20:06:23.676Z,1.95
2018-12-07T20:08:53.404Z,0.75
2018-12-07T20:11:22.767Z,1.72
2018-12-07T20:13:52.351Z,0.93
2018-12-07T20:16:21.909Z,0.82
2018-12-07T20:18:51.429Z,0.70
2018-12-07T20:21:20.705Z,2.20
2018-12-07T20:23:50.067Z,1.22
2018-12-07T20:26:19.295Z,0.50
2018-12-07T20:28:48.857Z,1.00
2018-12-07T20:31:18.339Z,0.90
2018-12-07T20:33:47.722Z,0.88
2018-12-07T20:36:17.206Z,0.93
2018-12-07T20:38:46.802Z,0.88
2018-12-07T20:41:16.345Z,1.50
2018-12-07T20:43:45.730Z,0.60
2018-12-07T20:46:15.061Z,0.80
2018-12-07T20:48:44.451Z,1.37
2018-12-07T20:51:13.923Z,1.45
2018-12-07T20:53:43.393Z,0.93
2018-12-07T20:56:13.052Z,2.25
2018-12-07T20:58:43.593Z,0.85
2018-12-07T21:01:13.068Z,0.62
2018-12-07T21:04:56.305Z,1.82
2018-12-07T21:07:58.327Z,1.10
2018-12-07T21:11:43.968Z,0.70
2018-12-07T21:14:33.863Z,1.05
2018-12-07T21:17:30.878Z,3.33
2018-12-07T21:20:18.329Z,0.88
2018-12-07T21:22:47.886Z,0.72
2018-12-07T21:25:17.517Z,1.27
2018-12-07T21:27:47.131Z,1.72
2018-12-07T21:30:46.654Z,1.60
2018-12-07T21:33:17.996Z,0.95
2018-12-07T21:36:11.854Z,1.07
2018-12-07T21:38:41.046Z,1.65
2018-12-07T21:41:10.209Z,1.55
2018-12-07T21:43:39.671Z,1.10
2018-12-07T21:46:08.896Z,1.07
2018-12-07T21:48:39.536Z,0.70
2018-12-07T21:51:29.439Z,0.70
2018-12-07T21:53:58.836Z,1.10
2018-12-07T21:56:28.213Z,0.60
2018-12-07T21:58:57.841Z,2.95
2018-12-07T22:01:27.286Z,1.47
2018-12-07T22:03:56.609Z,1.05
2018-12-07T22:06:25.846Z,0.80
2018-12-07T22:08:55.523Z,0.62
2018-12-07T22:11:25.056Z,0.85
2018-12-07T22:13:54.259Z,1.17
2018-12-07T22:16:23.539Z,0.50
2018-12-07T22:18:53.081Z,1.22
2018-12-07T22:21:22.400Z,0.75
2018-12-07T22:23:52.055Z,1.00
2018-12-07T22:26:21.390Z,0.75
2018-12-07T22:28:51.021Z,0.47
2018-12-07T22:31:20.512Z,0.62
2018-12-07T22:33:49.887Z,0.30
2018-12-07T22:36:19.324Z,0.82
2018-12-07T22:38:48.631Z,0.90
2018-12-07T22:41:17.842Z,0.78
2018-12-07T22:43:47.203Z,0.72
2018-12-07T22:46:16.624Z,0.60
2018-12-07T22:48:46.632Z,0.50
2018-12-07T22:51:17.901Z,0.53
2018-12-07T22:53:47.086Z,0.70
2018-12-07T22:56:16.264Z,0.70
2018-12-07T22:58:45.440Z,0.50
2018-12-07T23:01:15.007Z,0.55
2018-12-07T23:03:44.327Z,0.40
2018-12-07T23:06:13.564Z,1.25
2018-12-07T23:08:42.876Z,1.52
2018-12-07T23:11:12.183Z,0.40
2018-12-07T23:13:41.519Z,0.70
2018-12-07T23:16:10.780Z,0.40
2018-12-07T23:18:40.160Z,0.37
2018-12-07T23:21:09.364Z,0.90
2018-12-07T23:23:38.612Z,1.10
2018-12-07T23:26:07.904Z,0.60
2018-12-07T23:28:37.215Z,0.40
2018-12-07T23:31:06.867Z,0.78
2018-12-07T23:33:36.127Z,0.50
2018-12-07T23:36:05.523Z,0.28
2018-12-07T23:38:34.702Z,0.20
2018-12-07T23:41:10.486Z,0.30
2018-12-07T23:43:39.774Z,0.42
2018-12-07T23:46:09.083Z,0.30
2018-12-07T23:48:38.403Z,0.42
2018-12-07T23:51:08.292Z,0.28
2018-12-07T23:53:37.690Z,0.25
2018-12-07T23:56:07.054Z,0.20
2018-12-07T23:58:36.422Z,0.35
